sensor_id;sensor_type;location;lat;lon;timestamp;pressure;altitude;pressure_sealevel;temperature;humidity
32456;BME280;18912;43.270;27.942;2023-02-01T00:00:52;97966.75;;;4.93;70.70
32456;BME280;18912;43.270;27.942;2023-02-01T00:03:17;97968.88;;;5.05;70.60
32456;BME280;18912;43.270;27.942;2023-02-01T00:05:44;97967.56;;;5.01;70.36
32456;BME280;18912;43.270;27.942;2023-02-01T00:08:09;97975.66;;;4.85;69.69
32456;BME280;18912;43.270;27.942;2023-02-01T00:10:35;97975.16;;;4.90;70.38
32456;BME280;18912;43.270;27.942;2023-02-01T00:13:00;97978.84;;;4.81;70.26
32456;BME280;18912;43.270;27.942;2023-02-01T00:15:26;97974.72;;;4.70;71.17
32456;BME280;18912;43.270;27.942;2023-02-01T00:17:54;97974.94;;;4.99;70.09
32456;BME280;18912;43.270;27.942;2023-02-01T00:20:20;97973.47;;;4.89;70.27
32456;BME280;18912;43.270;27.942;2023-02-01T00:22:46;97967.03;;;4.98;70.39
32456;BME280;18912;43.270;27.942;2023-02-01T00:25:11;97968.25;;;4.95;70.32
32456;BME280;18912;43.270;27.942;2023-02-01T00:27:36;97967.94;;;4.90;70.18
32456;BME280;18912;43.270;27.942;2023-02-01T00:30:02;97973.28;;;4.90;70.02
32456;BME280;18912;43.270;27.942;2023-02-01T00:32:28;97977.09;;;4.65;70.96
32456;BME280;18912;43.270;27.942;2023-02-01T00:34:54;97978.06;;;4.72;70.88
32456;BME280;18912;43.270;27.942;2023-02-01T00:37:19;97981.78;;;4.71;70.32
32456;BME280;18912;43.270;27.942;2023-02-01T00:39:45;97977.03;;;4.73;70.98
32456;BME280;18912;43.270;27.942;2023-02-01T00:42:10;97974.44;;;4.65;70.57
32456;BME280;18912;43.270;27.942;2023-02-01T00:44:35;97979.94;;;4.63;71.10
32456;BME280;18912;43.270;27.942;2023-02-01T00:47:01;97976.63;;;4.61;70.97
32456;BME280;18912;43.270;27.942;2023-02-01T00:49:28;97979.94;;;4.63;70.87
32456;BME280;18912;43.270;27.942;2023-02-01T00:51:53;97981.41;;;4.74;70.73
32456;BME280;18912;43.270;27.942;2023-02-01T00:54:19;97981.03;;;4.77;70.34
32456;BME280;18912;43.270;27.942;2023-02-01T00:56:45;97981.03;;;4.77;70.34
32456;BME280;18912;43.270;27.942;2023-02-01T00:59:11;97978.72;;;4.74;70.82
32456;BME280;18912;43.270;27.942;2023-02-01T01:01:37;97986.06;;;4.80;70.24
32456;BME280;18912;43.270;27.942;2023-02-01T01:04:03;97988.88;;;4.87;70.05
32456;BME280;18912;43.270;27.942;2023-02-01T01:06:31;97987.44;;;4.76;70.31
32456;BME280;18912;43.270;27.942;2023-02-01T01:08:59;97980.19;;;4.46;70.51
32456;BME280;18912;43.270;27.942;2023-02-01T01:11:27;97984.13;;;4.66;70.98
32456;BME280;18912;43.270;27.942;2023-02-01T01:13:55;97992.50;;;4.63;70.79
32456;BME280;18912;43.270;27.942;2023-02-01T01:16:22;97991.09;;;4.75;70.47
32456;BME280;18912;43.270;27.942;2023-02-01T01:18:48;97981.22;;;4.75;70.17
32456;BME280;18912;43.270;27.942;2023-02-01T01:21:15;97981.91;;;4.69;69.87
32456;BME280;18912;43.270;27.942;2023-02-01T01:23:41;97988.97;;;4.70;70.34
32456;BME280;18912;43.270;27.942;2023-02-01T01:26:14;97984.00;;;4.51;70.13
32456;BME280;18912;43.270;27.942;2023-02-01T01:28:39;97979.09;;;4.71;70.19
32456;BME280;18912;43.270;27.942;2023-02-01T01:31:08;97975.97;;;4.59;70.41
32456;BME280;18912;43.270;27.942;2023-02-01T01:33:34;97977.34;;;4.39;70.64
32456;BME280;18912;43.270;27.942;2023-02-01T01:35:59;97950.34;;;4.57;69.75
32456;BME280;18912;43.270;27.942;2023-02-01T01:38:25;97974.81;;;4.46;70.68
32456;BME280;18912;43.270;27.942;2023-02-01T01:40:51;97966.41;;;4.57;70.35
32456;BME280;18912;43.270;27.942;2023-02-01T01:43:18;97964.81;;;4.40;70.61
32456;BME280;18912;43.270;27.942;2023-02-01T01:45:46;97970.75;;;4.58;70.75
32456;BME280;18912;43.270;27.942;2023-02-01T01:48:26;97967.25;;;4.57;69.96
32456;BME280;18912;43.270;27.942;2023-02-01T01:51:08;97967.31;;;4.80;69.75
32456;BME280;18912;43.270;27.942;2023-02-01T01:53:43;97970.97;;;4.87;69.03
32456;BME280;18912;43.270;27.942;2023-02-01T01:56:11;97969.81;;;4.82;69.21
32456;BME280;18912;43.270;27.942;2023-02-01T01:58:37;97985.91;;;4.82;69.46
32456;BME280;18912;43.270;27.942;2023-02-01T02:01:03;97980.38;;;4.75;69.48
32456;BME280;18912;43.270;27.942;2023-02-01T02:03:38;97978.72;;;4.74;69.28
32456;BME280;18912;43.270;27.942;2023-02-01T02:06:12;97981.72;;;4.79;69.12
32456;BME280;18912;43.270;27.942;2023-02-01T02:08:40;97986.28;;;4.70;69.17
32456;BME280;18912;43.270;27.942;2023-02-01T02:11:06;97988.75;;;4.80;69.20
32456;BME280;18912;43.270;27.942;2023-02-01T02:13:40;97989.91;;;4.78;69.31
32456;BME280;18912;43.270;27.942;2023-02-01T02:19:10;97985.38;;;4.86;68.72
32456;BME280;18912;43.270;27.942;2023-02-01T02:27:09;97976.63;;;4.92;67.96
32456;BME280;18912;43.270;27.942;2023-02-01T02:38:30;97968.22;;;5.03;67.62
32456;BME280;18912;43.270;27.942;2023-02-01T02:41:26;97969.69;;;5.06;67.49
32456;BME280;18912;43.270;27.942;2023-02-01T02:47:34;97967.38;;;5.03;67.58
32456;BME280;18912;43.270;27.942;2023-02-01T02:50:18;97971.22;;;5.00;67.42
32456;BME280;18912;43.270;27.942;2023-02-01T02:53:16;97972.72;;;4.72;68.23
32456;BME280;18912;43.270;27.942;2023-02-01T02:56:03;97977.34;;;4.86;68.07
32456;BME280;18912;43.270;27.942;2023-02-01T02:58:50;97975.00;;;4.83;68.00
32456;BME280;18912;43.270;27.942;2023-02-01T03:01:37;97976.28;;;4.95;67.88
32456;BME280;18912;43.270;27.942;2023-02-01T03:04:22;97984.00;;;4.90;67.75
32456;BME280;18912;43.270;27.942;2023-02-01T03:06:49;97974.38;;;4.73;68.13
32456;BME280;18912;43.270;27.942;2023-02-01T03:11:47;97973.09;;;4.61;68.85
32456;BME280;18912;43.270;27.942;2023-02-01T03:14:35;97970.09;;;4.56;69.12
32456;BME280;18912;43.270;27.942;2023-02-01T03:17:08;97974.38;;;4.73;68.31
32456;BME280;18912;43.270;27.942;2023-02-01T03:19:45;97976.03;;;4.82;67.87
32456;BME280;18912;43.270;27.942;2023-02-01T03:22:21;97982.72;;;4.78;68.00
32456;BME280;18912;43.270;27.942;2023-02-01T03:24:54;97977.19;;;4.80;68.10
32456;BME280;18912;43.270;27.942;2023-02-01T03:27:46;97981.53;;;4.81;68.00
32456;BME280;18912;43.270;27.942;2023-02-01T03:30:21;97977.03;;;4.73;68.11
32456;BME280;18912;43.270;27.942;2023-02-01T03:32:50;97977.56;;;4.77;67.46
32456;BME280;18912;43.270;27.942;2023-02-01T03:35:57;97994.50;;;4.61;68.02
32456;BME280;18912;43.270;27.942;2023-02-01T03:41:24;97993.09;;;4.73;67.68
32456;BME280;18912;43.270;27.942;2023-02-01T03:46:46;97985.63;;;4.68;67.46
32456;BME280;18912;43.270;27.942;2023-02-01T03:49:18;97988.81;;;4.64;67.50
32456;BME280;18912;43.270;27.942;2023-02-01T03:51:47;97998.66;;;4.63;67.64
32456;BME280;18912;43.270;27.942;2023-02-01T03:54:15;97993.81;;;4.67;67.65
32456;BME280;18912;43.270;27.942;2023-02-01T03:56:43;97996.66;;;4.65;67.60
32456;BME280;18912;43.270;27.942;2023-02-01T03:59:10;97998.16;;;4.68;67.65
32456;BME280;18912;43.270;27.942;2023-02-01T04:01:36;98003.50;;;4.68;67.57
32456;BME280;18912;43.270;27.942;2023-02-01T04:04:01;98007.88;;;4.69;67.67
32456;BME280;18912;43.270;27.942;2023-02-01T04:06:27;97999.31;;;4.73;67.70
32456;BME280;18912;43.270;27.942;2023-02-01T04:08:52;98008.03;;;4.67;67.92
32456;BME280;18912;43.270;27.942;2023-02-01T04:11:18;98015.94;;;4.61;67.96
32456;BME280;18912;43.270;27.942;2023-02-01T04:13:43;98014.44;;;4.50;68.55
32456;BME280;18912;43.270;27.942;2023-02-01T04:16:09;98015.94;;;4.61;68.42
32456;BME280;18912;43.270;27.942;2023-02-01T04:18:35;98013.56;;;4.66;68.12
32456;BME280;18912;43.270;27.942;2023-02-01T04:21:00;98014.03;;;4.69;68.05
32456;BME280;18912;43.270;27.942;2023-02-01T04:23:27;98020.25;;;4.70;68.00
32456;BME280;18912;43.270;27.942;2023-02-01T04:25:53;98012.22;;;4.70;67.61
32456;BME280;18912;43.270;27.942;2023-02-01T04:28:19;98004.03;;;4.63;67.39
32456;BME280;18912;43.270;27.942;2023-02-01T04:30:45;98015.56;;;4.64;67.47
32456;BME280;18912;43.270;27.942;2023-02-01T04:33:10;98008.41;;;4.56;67.29
32456;BME280;18912;43.270;27.942;2023-02-01T04:35:39;98016.13;;;4.51;66.87
32456;BME280;18912;43.270;27.942;2023-02-01T04:38:05;98017.97;;;4.43;67.15
32456;BME280;18912;43.270;27.942;2023-02-01T04:40:30;98027.03;;;4.42;67.04
32456;BME280;18912;43.270;27.942;2023-02-01T04:42:56;98028.38;;;4.30;67.20
32456;BME280;18912;43.270;27.942;2023-02-01T04:45:21;98035.91;;;4.34;66.96
32456;BME280;18912;43.270;27.942;2023-02-01T04:47:47;98034.75;;;4.13;67.41
32456;BME280;18912;43.270;27.942;2023-02-01T04:50:14;98026.09;;;4.03;67.68
32456;BME280;18912;43.270;27.942;2023-02-01T04:52:39;98009.19;;;4.02;67.53
32456;BME280;18912;43.270;27.942;2023-02-01T04:55:05;98038.94;;;4.07;68.18
32456;BME280;18912;43.270;27.942;2023-02-01T04:57:31;98040.63;;;3.92;68.55
32456;BME280;18912;43.270;27.942;2023-02-01T04:59:57;98056.00;;;3.98;68.63
32456;BME280;18912;43.270;27.942;2023-02-01T05:02:22;98041.78;;;3.98;68.69
32456;BME280;18912;43.270;27.942;2023-02-01T05:04:48;98051.16;;;4.02;68.34
32456;BME280;18912;43.270;27.942;2023-02-01T05:07:13;98050.97;;;3.95;68.40
32456;BME280;18912;43.270;27.942;2023-02-01T05:09:39;98050.16;;;3.95;68.53
32456;BME280;18912;43.270;27.942;2023-02-01T05:12:05;98056.66;;;3.92;68.37
32456;BME280;18912;43.270;27.942;2023-02-01T05:14:49;98051.00;;;3.87;68.31
32456;BME280;18912;43.270;27.942;2023-02-01T05:17:14;98055.97;;;3.82;67.84
32456;BME280;18912;43.270;27.942;2023-02-01T05:19:40;98055.19;;;3.82;67.79
32456;BME280;18912;43.270;27.942;2023-02-01T05:22:05;98059.69;;;3.81;67.30
32456;BME280;18912;43.270;27.942;2023-02-01T05:24:31;98061.19;;;3.75;67.09
32456;BME280;18912;43.270;27.942;2023-02-01T05:26:56;98057.34;;;3.70;67.41
32456;BME280;18912;43.270;27.942;2023-02-01T05:29:22;98066.19;;;3.62;67.44
32456;BME280;18912;43.270;27.942;2023-02-01T05:31:47;98073.00;;;3.65;67.50
32456;BME280;18912;43.270;27.942;2023-02-01T05:34:14;98068.16;;;3.52;68.22
32456;BME280;18912;43.270;27.942;2023-02-01T05:36:40;98070.19;;;3.58;68.63
32456;BME280;18912;43.270;27.942;2023-02-01T05:39:05;98073.03;;;3.73;68.78
32456;BME280;18912;43.270;27.942;2023-02-01T05:41:31;98079.19;;;3.57;69.86
32456;BME280;18912;43.270;27.942;2023-02-01T05:43:56;98083.72;;;3.57;69.03
32456;BME280;18912;43.270;27.942;2023-02-01T05:46:22;98084.41;;;3.83;69.03
32456;BME280;18912;43.270;27.942;2023-02-01T05:48:48;98095.28;;;4.06;69.15
32456;BME280;18912;43.270;27.942;2023-02-01T05:51:13;98095.94;;;4.32;68.51
32456;BME280;18912;43.270;27.942;2023-02-01T05:53:39;98088.03;;;4.62;68.20
32456;BME280;18912;43.270;27.942;2023-02-01T05:56:05;98088.16;;;4.85;67.19
32456;BME280;18912;43.270;27.942;2023-02-01T05:58:30;98085.34;;;5.17;65.87
32456;BME280;18912;43.270;27.942;2023-02-01T06:00:59;98089.56;;;5.50;64.73
32456;BME280;18912;43.270;27.942;2023-02-01T06:03:24;98082.25;;;5.67;64.19
32456;BME280;18912;43.270;27.942;2023-02-01T06:05:50;98086.56;;;5.68;63.49
32456;BME280;18912;43.270;27.942;2023-02-01T06:08:15;98087.75;;;5.43;63.03
32456;BME280;18912;43.270;27.942;2023-02-01T06:10:42;98087.31;;;5.62;62.43
32456;BME280;18912;43.270;27.942;2023-02-01T06:13:08;98079.31;;;6.07;61.55
32456;BME280;18912;43.270;27.942;2023-02-01T06:15:34;98087.53;;;6.06;60.27
32456;BME280;18912;43.270;27.942;2023-02-01T06:18:05;98092.94;;;6.20;58.88
32456;BME280;18912;43.270;27.942;2023-02-01T06:20:30;98097.53;;;6.34;58.83
32456;BME280;18912;43.270;27.942;2023-02-01T06:22:56;98099.56;;;6.84;58.37
32456;BME280;18912;43.270;27.942;2023-02-01T06:25:21;98099.44;;;7.50;56.70
32456;BME280;18912;43.270;27.942;2023-02-01T06:27:47;98101.06;;;7.66;54.71
32456;BME280;18912;43.270;27.942;2023-02-01T06:30:13;98105.63;;;8.01;53.75
32456;BME280;18912;43.270;27.942;2023-02-01T06:32:39;98107.72;;;8.06;53.46
32456;BME280;18912;43.270;27.942;2023-02-01T06:35:09;98104.88;;;7.93;53.36
32456;BME280;18912;43.270;27.942;2023-02-01T06:37:41;98098.81;;;7.70;53.25
32456;BME280;18912;43.270;27.942;2023-02-01T06:40:06;98101.00;;;7.45;53.47
32456;BME280;18912;43.270;27.942;2023-02-01T06:42:33;98100.59;;;7.27;54.02
32456;BME280;18912;43.270;27.942;2023-02-01T06:44:59;98100.03;;;7.17;53.96
32456;BME280;18912;43.270;27.942;2023-02-01T06:47:24;98110.34;;;6.99;54.29
32456;BME280;18912;43.270;27.942;2023-02-01T06:49:50;98101.44;;;7.27;54.48
32456;BME280;18912;43.270;27.942;2023-02-01T06:52:15;98105.03;;;8.06;53.50
32456;BME280;18912;43.270;27.942;2023-02-01T06:54:41;98109.63;;;9.91;49.78
32456;BME280;18912;43.270;27.942;2023-02-01T06:57:06;98101.47;;;12.18;45.21
32456;BME280;18912;43.270;27.942;2023-02-01T06:59:32;98113.13;;;13.66;41.15
32456;BME280;18912;43.270;27.942;2023-02-01T07:01:57;98104.31;;;15.24;39.01
32456;BME280;18912;43.270;27.942;2023-02-01T07:04:22;98108.50;;;16.01;36.78
32456;BME280;18912;43.270;27.942;2023-02-01T07:06:48;98114.06;;;17.45;34.90
32456;BME280;18912;43.270;27.942;2023-02-01T07:09:13;98109.44;;;18.76;32.66
32456;BME280;18912;43.270;27.942;2023-02-01T07:11:39;98109.38;;;20.27;30.82
32456;BME280;18912;43.270;27.942;2023-02-01T07:14:11;98119.41;;;20.79;29.07
32456;BME280;18912;43.270;27.942;2023-02-01T07:16:36;98123.03;;;21.39;28.25
32456;BME280;18912;43.270;27.942;2023-02-01T07:19:05;98124.66;;;21.61;28.64
32456;BME280;18912;43.270;27.942;2023-02-01T07:21:30;98127.44;;;21.30;28.34
32456;BME280;18912;43.270;27.942;2023-02-01T07:23:56;98125.88;;;22.34;27.45
32456;BME280;18912;43.270;27.942;2023-02-01T07:26:22;98121.81;;;22.06;27.39
32456;BME280;18912;43.270;27.942;2023-02-01T07:28:47;98121.06;;;21.95;27.39
32456;BME280;18912;43.270;27.942;2023-02-01T07:31:17;98123.22;;;23.11;26.65
32456;BME280;18912;43.270;27.942;2023-02-01T07:33:45;98123.78;;;21.90;27.51
32456;BME280;18912;43.270;27.942;2023-02-01T07:36:15;98112.34;;;21.33;28.22
32456;BME280;18912;43.270;27.942;2023-02-01T07:38:42;98125.44;;;21.96;27.90
32456;BME280;18912;43.270;27.942;2023-02-01T07:41:08;98118.88;;;21.82;27.92
32456;BME280;18912;43.270;27.942;2023-02-01T07:43:34;98118.56;;;19.96;29.73
32456;BME280;18912;43.270;27.942;2023-02-01T07:46:00;98136.88;;;19.44;30.81
32456;BME280;18912;43.270;27.942;2023-02-01T07:48:26;98127.34;;;18.13;32.83
32456;BME280;18912;43.270;27.942;2023-02-01T07:51:08;98127.16;;;17.60;33.58
32456;BME280;18912;43.270;27.942;2023-02-01T07:53:35;98124.63;;;15.91;35.73
32456;BME280;18912;43.270;27.942;2023-02-01T07:56:02;98127.72;;;14.90;37.80
32456;BME280;18912;43.270;27.942;2023-02-01T07:58:28;98133.72;;;13.13;40.82
32456;BME280;18912;43.270;27.942;2023-02-01T08:00:55;98120.69;;;11.66;43.90
32456;BME280;18912;43.270;27.942;2023-02-01T08:03:39;98131.41;;;11.02;46.50
32456;BME280;18912;43.270;27.942;2023-02-01T08:06:05;98126.00;;;10.82;46.85
32456;BME280;18912;43.270;27.942;2023-02-01T08:08:32;98131.75;;;11.45;46.01
32456;BME280;18912;43.270;27.942;2023-02-01T08:11:02;98128.06;;;12.34;44.61
32456;BME280;18912;43.270;27.942;2023-02-01T08:13:28;98122.78;;;12.08;44.49
32456;BME280;18912;43.270;27.942;2023-02-01T08:16:00;98131.16;;;12.69;43.74
32456;BME280;18912;43.270;27.942;2023-02-01T08:18:26;98126.75;;;13.42;42.88
32456;BME280;18912;43.270;27.942;2023-02-01T08:20:52;98131.28;;;13.66;42.16
32456;BME280;18912;43.270;27.942;2023-02-01T08:23:17;98131.59;;;13.40;43.27
32456;BME280;18912;43.270;27.942;2023-02-01T08:25:43;98135.38;;;13.75;42.16
32456;BME280;18912;43.270;27.942;2023-02-01T08:28:10;98140.81;;;13.75;41.21
32456;BME280;18912;43.270;27.942;2023-02-01T08:30:39;98137.03;;;13.58;41.81
32456;BME280;18912;43.270;27.942;2023-02-01T08:33:05;98142.63;;;13.63;42.14
32456;BME280;18912;43.270;27.942;2023-02-01T08:35:32;98138.31;;;13.55;42.18
32456;BME280;18912;43.270;27.942;2023-02-01T08:37:59;98145.25;;;13.33;42.95
32456;BME280;18912;43.270;27.942;2023-02-01T08:40:24;98141.06;;;13.31;42.79
32456;BME280;18912;43.270;27.942;2023-02-01T08:42:50;98138.00;;;13.27;42.75
32456;BME280;18912;43.270;27.942;2023-02-01T08:45:16;98143.66;;;13.26;43.77
32456;BME280;18912;43.270;27.942;2023-02-01T08:47:41;98141.09;;;12.75;44.28
32456;BME280;18912;43.270;27.942;2023-02-01T08:50:08;98135.78;;;13.18;43.87
32456;BME280;18912;43.270;27.942;2023-02-01T08:52:34;98135.31;;;13.21;43.70
32456;BME280;18912;43.270;27.942;2023-02-01T08:54:59;98134.44;;;13.27;44.15
32456;BME280;18912;43.270;27.942;2023-02-01T08:57:25;98134.81;;;13.30;43.31
32456;BME280;18912;43.270;27.942;2023-02-01T08:59:50;98140.47;;;13.29;43.41
32456;BME280;18912;43.270;27.942;2023-02-01T09:02:17;98127.78;;;12.73;43.81
32456;BME280;18912;43.270;27.942;2023-02-01T09:04:43;98141.94;;;13.00;44.29
32456;BME280;18912;43.270;27.942;2023-02-01T09:07:09;98140.81;;;12.58;43.98
32456;BME280;18912;43.270;27.942;2023-02-01T09:09:35;98136.38;;;12.70;44.30
32456;BME280;18912;43.270;27.942;2023-02-01T09:12:02;98133.94;;;13.11;44.25
32456;BME280;18912;43.270;27.942;2023-02-01T09:14:28;98144.56;;;12.88;43.51
32456;BME280;18912;43.270;27.942;2023-02-01T09:16:53;98143.06;;;12.92;43.84
32456;BME280;18912;43.270;27.942;2023-02-01T09:19:19;98142.56;;;12.46;44.66
32456;BME280;18912;43.270;27.942;2023-02-01T09:21:44;98139.06;;;12.70;43.96
32456;BME280;18912;43.270;27.942;2023-02-01T09:24:10;98125.28;;;12.09;44.99
32456;BME280;18912;43.270;27.942;2023-02-01T09:26:36;98123.00;;;11.36;46.71
32456;BME280;18912;43.270;27.942;2023-02-01T09:29:02;98128.44;;;11.36;46.95
32456;BME280;18912;43.270;27.942;2023-02-01T09:31:29;98117.22;;;11.19;46.68
32456;BME280;18912;43.270;27.942;2023-02-01T09:33:54;98123.44;;;11.26;46.93
32456;BME280;18912;43.270;27.942;2023-02-01T09:36:20;98114.97;;;10.90;48.38
32456;BME280;18912;43.270;27.942;2023-02-01T09:38:45;98110.03;;;11.64;46.90
32456;BME280;18912;43.270;27.942;2023-02-01T09:47:25;98104.59;;;13.63;43.27
32456;BME280;18912;43.270;27.942;2023-02-01T09:52:31;98100.75;;;13.70;42.62
32456;BME280;18912;43.270;27.942;2023-02-01T09:55:04;98088.00;;;14.19;41.62
32456;BME280;18912;43.270;27.942;2023-02-01T09:57:49;98087.91;;;13.77;42.14
32456;BME280;18912;43.270;27.942;2023-02-01T10:00:20;98086.78;;;13.31;42.29
32456;BME280;18912;43.270;27.942;2023-02-01T10:02:49;98092.38;;;12.37;42.41
32456;BME280;18912;43.270;27.942;2023-02-01T10:05:25;98093.28;;;12.80;42.99
32456;BME280;18912;43.270;27.942;2023-02-01T10:08:05;98088.84;;;11.99;44.69
32456;BME280;18912;43.270;27.942;2023-02-01T10:10:43;98083.34;;;11.10;46.23
32456;BME280;18912;43.270;27.942;2023-02-01T10:16:00;98076.81;;;11.31;46.30
32456;BME280;18912;43.270;27.942;2023-02-01T10:18:51;98068.16;;;12.42;44.25
32456;BME280;18912;43.270;27.942;2023-02-01T10:21:32;98069.94;;;13.76;43.11
32456;BME280;18912;43.270;27.942;2023-02-01T10:27:02;98053.25;;;14.62;41.01
32456;BME280;18912;43.270;27.942;2023-02-01T10:29:37;98045.19;;;14.14;41.47
32456;BME280;18912;43.270;27.942;2023-02-01T10:32:13;98046.66;;;15.04;40.91
32456;BME280;18912;43.270;27.942;2023-02-01T10:34:41;98043.38;;;14.08;41.14
32456;BME280;18912;43.270;27.942;2023-02-01T10:37:36;98049.38;;;13.14;41.88
32456;BME280;18912;43.270;27.942;2023-02-01T10:40:24;98046.19;;;11.94;44.08
32456;BME280;18912;43.270;27.942;2023-02-01T10:42:58;98047.81;;;10.74;46.08
32456;BME280;18912;43.270;27.942;2023-02-01T10:45:27;98038.47;;;10.18;47.75
32456;BME280;18912;43.270;27.942;2023-02-01T10:47:55;98045.53;;;10.58;47.51
32456;BME280;18912;43.270;27.942;2023-02-01T10:53:20;98036.19;;;10.41;48.39
32456;BME280;18912;43.270;27.942;2023-02-01T10:55:50;98034.72;;;10.32;47.30
32456;BME280;18912;43.270;27.942;2023-02-01T10:58:18;98035.16;;;9.56;47.81
32456;BME280;18912;43.270;27.942;2023-02-01T11:00:52;98034.81;;;9.72;47.47
32456;BME280;18912;43.270;27.942;2023-02-01T11:03:32;98030.53;;;9.97;47.73
32456;BME280;18912;43.270;27.942;2023-02-01T11:05:58;98034.88;;;9.98;47.74
32456;BME280;18912;43.270;27.942;2023-02-01T11:08:24;98025.09;;;9.90;47.50
32456;BME280;18912;43.270;27.942;2023-02-01T11:10:58;98025.16;;;10.62;47.63
32456;BME280;18912;43.270;27.942;2023-02-01T11:13:29;98027.09;;;11.25;46.71
32456;BME280;18912;43.270;27.942;2023-02-01T11:15:56;98029.41;;;11.15;46.09
32456;BME280;18912;43.270;27.942;2023-02-01T11:18:28;98023.53;;;10.35;47.15
32456;BME280;18912;43.270;27.942;2023-02-01T11:20:54;98032.88;;;10.52;48.22
32456;BME280;18912;43.270;27.942;2023-02-01T11:23:25;98032.44;;;10.35;48.22
32456;BME280;18912;43.270;27.942;2023-02-01T11:25:57;98011.84;;;10.41;47.82
32456;BME280;18912;43.270;27.942;2023-02-01T11:28:26;98019.56;;;10.44;47.96
32456;BME280;18912;43.270;27.942;2023-02-01T11:30:55;98023.69;;;10.01;48.66
32456;BME280;18912;43.270;27.942;2023-02-01T11:33:25;98009.09;;;9.89;49.84
32456;BME280;18912;43.270;27.942;2023-02-01T11:35:56;98009.44;;;9.53;49.30
32456;BME280;18912;43.270;27.942;2023-02-01T11:38:30;98022.13;;;9.12;49.21
32456;BME280;18912;43.270;27.942;2023-02-01T11:41:14;98006.53;;;9.61;49.13
32456;BME280;18912;43.270;27.942;2023-02-01T11:44:00;98007.31;;;9.35;49.91
32456;BME280;18912;43.270;27.942;2023-02-01T11:46:33;97990.91;;;8.49;49.87
32456;BME280;18912;43.270;27.942;2023-02-01T11:55:04;97999.00;;;8.83;50.48
32456;BME280;18912;43.270;27.942;2023-02-01T12:06:28;97987.94;;;9.99;49.06
32456;BME280;18912;43.270;27.942;2023-02-01T12:16:28;97984.84;;;10.48;49.23
32456;BME280;18912;43.270;27.942;2023-02-01T12:36:12;97988.09;;;8.70;52.35
32456;BME280;18912;43.270;27.942;2023-02-01T12:41:28;97993.75;;;8.47;53.94
32456;BME280;18912;43.270;27.942;2023-02-01T12:44:08;97991.47;;;7.96;54.85
32456;BME280;18912;43.270;27.942;2023-02-01T12:46:43;97986.59;;;7.85;55.56
32456;BME280;18912;43.270;27.942;2023-02-01T12:49:18;97975.38;;;8.02;55.94
32456;BME280;18912;43.270;27.942;2023-02-01T12:51:48;97988.28;;;8.13;54.83
32456;BME280;18912;43.270;27.942;2023-02-01T12:54:28;97977.09;;;8.31;54.42
32456;BME280;18912;43.270;27.942;2023-02-01T12:57:24;97982.53;;;8.72;52.69
32456;BME280;18912;43.270;27.942;2023-02-01T12:59:59;97977.16;;;8.72;52.81
32456;BME280;18912;43.270;27.942;2023-02-01T13:02:43;97987.81;;;8.59;53.01
32456;BME280;18912;43.270;27.942;2023-02-01T13:05:20;97986.59;;;8.61;52.37
32456;BME280;18912;43.270;27.942;2023-02-01T13:10:42;97963.22;;;9.09;52.47
32456;BME280;18912;43.270;27.942;2023-02-01T13:15:49;97963.34;;;9.41;51.13
32456;BME280;18912;43.270;27.942;2023-02-01T13:18:20;97964.56;;;9.32;51.20
32456;BME280;18912;43.270;27.942;2023-02-01T13:21:08;97964.41;;;9.60;51.52
32456;BME280;18912;43.270;27.942;2023-02-01T13:23:40;97965.06;;;9.75;49.96
32456;BME280;18912;43.270;27.942;2023-02-01T13:26:08;97959.84;;;9.67;48.91
32456;BME280;18912;43.270;27.942;2023-02-01T13:29:09;97950.94;;;9.67;49.30
32456;BME280;18912;43.270;27.942;2023-02-01T13:34:58;97957.78;;;9.02;50.97
32456;BME280;18912;43.270;27.942;2023-02-01T13:42:58;97960.31;;;9.10;50.82
32456;BME280;18912;43.270;27.942;2023-02-01T13:45:34;97963.31;;;9.28;50.97
32456;BME280;18912;43.270;27.942;2023-02-01T13:48:02;97959.19;;;9.46;51.37
32456;BME280;18912;43.270;27.942;2023-02-01T13:50:37;97960.22;;;9.44;50.72
32456;BME280;18912;43.270;27.942;2023-02-01T13:55:41;97957.50;;;9.31;50.31
32456;BME280;18912;43.270;27.942;2023-02-01T13:58:17;97962.84;;;9.18;49.95
32456;BME280;18912;43.270;27.942;2023-02-01T14:00:46;97964.50;;;9.19;50.86
32456;BME280;18912;43.270;27.942;2023-02-01T14:03:17;97965.69;;;9.04;51.41
32456;BME280;18912;43.270;27.942;2023-02-01T14:08:23;97971.41;;;8.81;51.16
32456;BME280;18912;43.270;27.942;2023-02-01T14:10:58;97979.50;;;8.81;52.23
32456;BME280;18912;43.270;27.942;2023-02-01T14:26:20;97983.19;;;8.46;54.61
32456;BME280;18912;43.270;27.942;2023-02-01T14:29:25;97978.16;;;8.15;55.27
32456;BME280;18912;43.270;27.942;2023-02-01T14:34:26;97979.84;;;8.16;56.02
32456;BME280;18912;43.270;27.942;2023-02-01T14:55:59;97990.00;;;8.21;58.07
32456;BME280;18912;43.270;27.942;2023-02-01T14:58:39;97977.72;;;8.33;57.63
32456;BME280;18912;43.270;27.942;2023-02-01T15:04:17;97985.41;;;8.36;57.87
32456;BME280;18912;43.270;27.942;2023-02-01T15:06:51;97975.59;;;8.28;57.79
32456;BME280;18912;43.270;27.942;2023-02-01T15:09:46;97981.91;;;8.14;58.42
32456;BME280;18912;43.270;27.942;2023-02-01T15:17:35;97988.47;;;7.84;60.05
32456;BME280;18912;43.270;27.942;2023-02-01T15:20:16;97987.63;;;8.05;59.77
32456;BME280;18912;43.270;27.942;2023-02-01T15:22:43;97988.72;;;7.89;60.09
32456;BME280;18912;43.270;27.942;2023-02-01T15:25:31;97987.09;;;7.95;60.13
32456;BME280;18912;43.270;27.942;2023-02-01T15:27:57;97980.09;;;7.73;60.65
32456;BME280;18912;43.270;27.942;2023-02-01T15:30:25;97975.84;;;7.85;60.85
32456;BME280;18912;43.270;27.942;2023-02-01T15:33:25;97955.88;;;7.51;61.34
32456;BME280;18912;43.270;27.942;2023-02-01T15:35:51;97974.31;;;7.54;61.40
32456;BME280;18912;43.270;27.942;2023-02-01T15:43:24;97981.22;;;7.64;60.77
32456;BME280;18912;43.270;27.942;2023-02-01T15:45:50;97996.53;;;7.63;60.90
32456;BME280;18912;43.270;27.942;2023-02-01T15:48:23;97995.63;;;7.77;60.28